Lenoir, NC (28645)

4:49 PM EDT on September 02, 2015 (GMT -0400)
Highland Ave | | Change Station
CLOSE
Current Station
Personal Weather Station
Location: Lenoir, NC
Elevation: 1128 ft
Nearby Weather Stations

Elev 1128 ft 35.91 °N, 81.53 °W | Updated 8 seconds ago

Mostly Cloudy
Mostly Cloudy
90.7 °F
Feels Like 94 °F
N
0.0
Wind Variable Wind from East
Gusts 0.0 mph

Today
High -- | Low -- °F
--% Chance of Precip.
Yesterday
High -- | Low -- °F
Precip. -- in
6:58 AM 7:52 PM
Waning Gibbous, 77% visible
Pressure 30.07 in
Visibility 10.0 miles
Clouds Scattered Clouds 9000 ft
Heat Index 94 °F
Dew Point 67 °F
Humidity 46%
Rainfall 0.00 in
Snow Depth Not available.
UV 4 out of 12
Pollen 9.20 out of 12
Air Quality Not available.
Flu Activity Not available.
METAR KMRN 022035Z AUTO 18006KT 10SM SCT090 32/17 A3007 RMK AO2 T03150168
Pressure 30.07 in
Visibility 10.0 miles
Clouds Scattered Clouds 9000 ft
Heat Index 94 °F
Dew Point 67 °F
Humidity 46%
Rainfall 0.00 in
Snow Depth Not available.
UV 4 out of 12
Pollen 9.20 out of 12
Air Quality Not available.
Flu Activity Not available.
METAR KMRN 022035Z AUTO 18006KT 10SM SCT090 32/17 A3007 RMK AO2 T03150168

10-Day Weather Forecast

×

Almanac

Astronomy

Sep. 02, 2015 Rise Set
Actual Time
Civil Twilight
Nautical Twilight
Astronomical Twilight
Moon
Length of Visible Light
Length of Day
Tomorrow will be .
, % of the Moon is Illuminated

Today's Extremes

State Highs State Lows

Community

WunderPhotos

Upload Photos

1,851,806 photos uploaded!

WunderBlogs® & News

Nearby

Air Quality

  Air Quality AQ Index Pollutant
Not available.

Snow Depth

Station Depth Elevation

Earthquake Activity

City Distance Mag. Time & Date
Minimum magnitude displayed is 2.5.

Coastal Water Temperatures

Place Temperature

Stations

Nearby Weather Stations

Station Location Temp. Windchill Dew Point Humidity Wind Precip. Elev Updated Type